Terminal Aerodrome Forecast
Issued by NWS

Home | Current Version | Previous Version | Graphics & Text | Print | Product List | Glossary On
Versions: 1 2 3 4 5 6 7 8 9 10 11 12 13 14 15 16 17 18 19 20 21
000
FTUS43 KMPX 242300 RRA
TAFRWF
TAF
KRWF 242341Z 2500/2524 32016G28KT P6SM OVC017
     FM250200 31013G22KT P6SM SKC
     FM250900 28006KT P6SM FEW050
     FM251800 20005KT P6SM OVC020=

USA.gov is the U.S. government's official web portal to all federal, state and local government web resources and services.